Sacor II — CSGB2 — position and weather

sailwx.info

Track history (hours):
 
Tides and Currents Weather Stations Pressure Air Temp Water Temp Dewpoint Dewpoint Depression Visibility Wind Speed Wind Dir Waves Ship Positions

Sacor II

Last reported at 2018-Feb-20 13:11 UTC. Time now 2018-Feb-20 14:05 UTC.
Position N 38°41' W 009°12'.

Length 75 m; draft 3.5 m.

Type: Tanker. MMSI: 263702340.

Date/timePositionNaut miles runAvg speedWind from/ knotsBaromVisibWave heightAir tempDewpointWater temp
2018-Feb-20 13:11N 38°41' W 009°12'0 0.0
2018-Feb-20 12:59N 38°41' W 009°12'0 0.0
2018-Feb-19 21:16N 38°41' W 009°12'0 0.0
2018-Feb-19 20:22N 38°41' W 009°12'0 0.0
2018-Feb-19 19:46N 38°41' W 009°12'0 0.0
2018-Feb-19 19:16N 38°41' W 009°12'0 0.0
2018-Feb-19 18:40N 38°41' W 009°12'0 0.0
2018-Feb-19 18:10N 38°41' W 009°12'0 0.0
2018-Feb-19 17:49N 38°41' W 009°12'0 0.0
2018-Feb-19 14:16N 38°41' W 009°12'0 0.0
2018-Feb-19 13:58N 38°41' W 009°12'0 0.0
2018-Feb-19 13:13N 38°41' W 009°12'0 0.0
2018-Feb-19 12:58N 38°41' W 009°12'0 0.0
2018-Feb-19 12:13N 38°41' W 009°12'0 0.0
2018-Feb-19 11:46N 38°41' W 009°12'0 0.0
2018-Feb-19 10:31N 38°41' W 009°12'0 0.0
2018-Feb-19 10:04N 38°41' W 009°12'0 0.0
2018-Feb-19 09:43N 38°41' W 009°12'0 0.0
2018-Feb-19 09:22N 38°41' W 009°12'0 0.0
2018-Feb-19 08:58N 38°41' W 009°12'1 0.9
2018-Feb-19 08:16N 38°41' W 009°12'0 0.1
2018-Feb-19 07:58N 38°41' W 009°12'0 0.1
2018-Feb-19 07:25N 38°41' W 009°11'0 0.0
2018-Feb-19 06:58N 38°41' W 009°11'0 0.0
2018-Feb-19 06:25N 38°41' W 009°11'0 0.1
2018-Feb-19 05:55N 38°41' W 009°11'1 0.5
2018-Feb-19 04:29N 38°41' W 009°12'0 0.0
2018-Feb-19 03:56N 38°41' W 009°12'0 0.0
2018-Feb-19 03:26N 38°41' W 009°12'0 0.0
2018-Feb-19 02:56N 38°41' W 009°12'0 0.0
2018-Feb-19 00:38N 38°41' W 009°12'0 0.0
2018-Feb-19 00:02N 38°41' W 009°12'0 0.0
2018-Feb-18 23:38N 38°41' W 009°12'0 0.0
2018-Feb-18 23:26N 38°41' W 009°12'0 0.0
2018-Feb-18 21:59N 38°41' W 009°12'0 0.0
2018-Feb-18 21:26N 38°41' W 009°12'0 0.0
2018-Feb-18 19:56N 38°41' W 009°12'0 0.0
2018-Feb-18 19:29N 38°41' W 009°12'0 0.0
2018-Feb-18 18:53N 38°41' W 009°12'0 0.0
2018-Feb-18 18:26N 38°41' W 009°12'0 0.0
2018-Feb-18 16:53N 38°41' W 009°12'0 0.0
2018-Feb-18 15:20N 38°41' W 009°12'0 0.0
2018-Feb-18 14:53N 38°41' W 009°12'0 1.1
2018-Feb-18 14:30N 38°41' W 009°12'4 7.1
2018-Feb-18 14:00N 38°42' W 009°08'1 1.6
2018-Feb-18 13:28N 38°43' W 009°07'0 0.0
2018-Feb-18 12:46N 38°43' W 009°07'0 0.0
2018-Feb-18 12:28N 38°43' W 009°07'0 0.0
2018-Feb-18 11:49N 38°43' W 009°07'0 0.0
2018-Feb-18 11:25N 38°43' W 009°07'0 0.0
2018-Feb-18 10:43N 38°43' W 009°07'0 0.0
2018-Feb-18 10:25N 38°43' W 009°07'0 0.0
2018-Feb-18 09:58N 38°43' W 009°07'0 0.0
2018-Feb-18 09:28N 38°43' W 009°07'0 0.0
2018-Feb-18 08:58N 38°43' W 009°07'3 6.0
2018-Feb-18 08:30N 38°41' W 009°10'2 4.2
2018-Feb-18 07:59N 38°41' W 009°12'0 0.0
2018-Feb-18 07:29N 38°41' W 009°12'0 0.0
2018-Feb-18 06:59N 38°41' W 009°12'0 0.0
2018-Feb-18 06:29N 38°41' W 009°12'0 0.0
2018-Feb-18 05:53N 38°41' W 009°12'0 0.0
2018-Feb-18 05:11N 38°41' W 009°12'0 0.0
2018-Feb-18 03:47N 38°41' W 009°12'0 0.0
2018-Feb-18 03:23N 38°41' W 009°12'0 0.0
2018-Feb-18 02:41N 38°41' W 009°12'0 0.0
2018-Feb-18 02:11N 38°41' W 009°12'0 0.0
2018-Feb-18 01:59N 38°41' W 009°12'0 0.0
2018-Feb-18 01:26N 38°41' W 009°12'0 0.0
2018-Feb-18 00:59N 38°41' W 009°12'0 0.0
2018-Feb-18 00:17N 38°41' W 009°12'0 0.0
2018-Feb-17 22:53N 38°41' W 009°12'0 0.0
2018-Feb-17 20:53N 38°41' W 009°12'0 0.0
2018-Feb-17 20:08N 38°41' W 009°12'0 0.0
2018-Feb-17 19:41N 38°41' W 009°12'0 0.0
2018-Feb-17 19:29N 38°41' W 009°12'0 0.0
2018-Feb-17 18:59N 38°41' W 009°12'0 0.0
2018-Feb-17 18:17N 38°41' W 009°12'0 0.0
2018-Feb-17 17:53N 38°41' W 009°12'0 0.0
2018-Feb-17 16:47N 38°41' W 009°12'0 0.0
2018-Feb-17 16:11N 38°41' W 009°12'0 0.0
2018-Feb-17 15:47N 38°41' W 009°12'0 0.0
2018-Feb-17 15:23N 38°41' W 009°12'0 0.0
2018-Feb-17 13:53N 38°41' W 009°12'0 0.0
2018-Feb-17 12:23N 38°41' W 009°12'0 0.0
2018-Feb-17 11:50N 38°41' W 009°12'0 0.0
2018-Feb-17 11:23N 38°41' W 009°12'0 0.0
2018-Feb-17 10:59N 38°41' W 009°12'0 0.0
2018-Feb-17 10:29N 38°41' W 009°12'0 0.0
2018-Feb-17 09:53N 38°41' W 009°12'0 0.0
2018-Feb-17 09:11N 38°41' W 009°12'0 0.0
2018-Feb-17 08:47N 38°41' W 009°12'0 0.0
2018-Feb-17 07:29N 38°41' W 009°12'0 0.0
2018-Feb-17 06:50N 38°41' W 009°12'0 0.0
2018-Feb-17 04:41N 38°41' W 009°12'0 0.0
2018-Feb-17 04:11N 38°41' W 009°12'0 0.0
2018-Feb-17 02:17N 38°41' W 009°12'0 0.0
2018-Feb-17 01:41N 38°41' W 009°12'0 0.0
2018-Feb-17 01:17N 38°41' W 009°12'0 0.0
2018-Feb-17 00:59N 38°41' W 009°12'0 0.0
2018-Feb-17 00:23N 38°41' W 009°12'0 0.5
2018-Feb-17 00:00N 38°41' W 009°12'1 1.1
2018-Feb-16 23:19N 38°41' W 009°11'0 0.1
2018-Feb-16 21:51N 38°41' W 009°11'3 8.9
2018-Feb-16 21:30N 38°42' W 009°07'0 0.2
2018-Feb-16 20:58N 38°42' W 009°07'0 0.0
2018-Feb-16 20:28N 38°42' W 009°07'0 0.0
2018-Feb-16 19:58N 38°42' W 009°07'0 0.0
2018-Feb-16 19:31N 38°42' W 009°07'0 0.0
2018-Feb-16 19:00N 38°42' W 009°07'0 0.0
2018-Feb-16 18:29N 38°42' W 009°07'0 0.1
2018-Feb-16 18:01N 38°42' W 009°07'0 0.1
2018-Feb-16 17:30N 38°42' W 009°07'0 0.5
2018-Feb-16 16:59N 38°42' W 009°07'3 4.5
2018-Feb-16 16:25N 38°44' W 009°06'0 0.0
2018-Feb-16 16:00N 38°44' W 009°06'0 0.0
2018-Feb-16 15:27N 38°44' W 009°06'0 0.0
2018-Feb-16 15:01N 38°44' W 009°06'0 0.0
2018-Feb-16 13:50N 38°44' W 009°06'0 0.7
2018-Feb-16 13:30N 38°44' W 009°06'3 6.8
2018-Feb-16 13:01N 38°42' W 009°08'4 3.2
2018-Feb-16 11:53N 38°41' W 009°13'0 0.0
2018-Feb-16 09:53N 38°41' W 009°13'0 0.0
2018-Feb-16 08:50N 38°41' W 009°13'0 0.2
2018-Feb-16 08:24N 38°41' W 009°13'0 1.1
2018-Feb-16 08:00N 38°41' W 009°12'0 0.0
2018-Feb-16 07:27N 38°41' W 009°12'0 0.0
2018-Feb-16 07:00N 38°41' W 009°12'0 0.0
2018-Feb-16 06:09N 38°41' W 009°12'0 0.0
2018-Feb-16 05:42N 38°41' W 009°12'0 0.0
2018-Feb-16 04:51N 38°41' W 009°12'0 0.0
2018-Feb-16 04:30N 38°41' W 009°12'0 0.0
2018-Feb-16 02:36N 38°41' W 009°12'0 0.0
2018-Feb-16 02:24N 38°41' W 009°12'0 0.0
2018-Feb-16 01:42N 38°41' W 009°12'0 0.0
2018-Feb-16 01:24N 38°41' W 009°12'0 0.0
2018-Feb-16 00:48N 38°41' W 009°12'0 0.0
2018-Feb-15 23:12N 38°41' W 009°12'0 0.0
2018-Feb-15 22:42N 38°41' W 009°12'0 0.0
2018-Feb-15 22:21N 38°41' W 009°12'0 0.2
2018-Feb-15 21:57N 38°41' W 009°12'4 7.6
2018-Feb-15 21:29N 38°42' W 009°08'0 0.1
2018-Feb-15 20:59N 38°42' W 009°08'0 0.1
2018-Feb-15 20:29N 38°42' W 009°08'0 0.0
2018-Feb-15 19:56N 38°42' W 009°08'0 0.0
2018-Feb-15 19:29N 38°42' W 009°08'0 0.0
2018-Feb-15 18:59N 38°42' W 009°08'0 0.3
2018-Feb-15 18:30N 38°42' W 009°08'4 6.9
2018-Feb-15 17:59N 38°41' W 009°13'0 0.1
2018-Feb-15 16:27N 38°41' W 009°13'1 0.5
2018-Feb-15 15:26N 38°41' W 009°12'4 8.9
2018-Feb-15 15:00N 38°42' W 009°08'2 1.0
2018-Feb-15 13:29N 38°44' W 009°06'0 0.0
2018-Feb-15 12:56N 38°44' W 009°06'0 0.0
2018-Feb-15 09:11N 38°43' W 009°06'0 0.4
2018-Feb-15 08:58N 38°43' W 009°06'4 7.8
2018-Feb-15 08:30N 38°41' W 009°10'2 2.5
2018-Feb-15 07:48N 38°41' W 009°12'0 0.0
2018-Feb-15 07:24N 38°41' W 009°12'0 0.0
2018-Feb-15 06:21N 38°41' W 009°12'0 0.0
2018-Feb-15 05:42N 38°41' W 009°12'0 0.0
2018-Feb-15 05:30N 38°41' W 009°12'0 0.0
2018-Feb-15 04:00N 38°41' W 009°12'0 0.0
2018-Feb-15 02:33N 38°41' W 009°12'0 0.0
2018-Feb-15 01:06N 38°41' W 009°12'0 0.0
2018-Feb-15 00:54N 38°41' W 009°12'0 0.0
2018-Feb-15 00:21N 38°41' W 009°12'0 0.0
2018-Feb-15 00:00N 38°41' W 009°12'0 0.0
2018-Feb-14 23:18N 38°41' W 009°12'0 0.0
2018-Feb-14 23:00N 38°41' W 009°12'0 0.0
2018-Feb-14 22:12N 38°41' W 009°12'0 0.0
2018-Feb-14 20:48N 38°41' W 009°12'0 0.0
2018-Feb-14 20:06N 38°41' W 009°12'0 0.0
2018-Feb-14 20:00N 38°41' W 009°12'0 0.0
2018-Feb-14 18:33N 38°41' W 009°12'0 0.2
2018-Feb-14 18:15N 38°41' W 009°12'0 0.7
2018-Feb-14 17:43N 38°41' W 009°13'0 0.0
2018-Feb-14 17:25N 38°41' W 009°13'0 0.0
2018-Feb-14 16:49N 38°41' W 009°13'0 0.0
2018-Feb-14 16:28N 38°41' W 009°13'0 0.0
2018-Feb-14 15:58N 38°41' W 009°13'0 0.0
2018-Feb-14 15:22N 38°41' W 009°13'0 0.0
2018-Feb-14 14:55N 38°41' W 009°13'0 0.0
2018-Feb-14 14:27N 38°41' W 009°13'0 0.0
2018-Feb-14 14:00N 38°41' W 009°13'2 4.3
2018-Feb-14 13:30N 38°41' W 009°10'3 6.3
2018-Feb-14 12:59N 38°43' W 009°07'0 0.0
2018-Feb-14 12:29N 38°43' W 009°07'0 0.0
2018-Feb-14 11:57N 38°43' W 009°07'0 0.0
2018-Feb-14 11:30N 38°43' W 009°07'0 0.0
2018-Feb-14 11:00N 38°43' W 009°07'0 0.3
2018-Feb-14 10:30N 38°43' W 009°07'0 0.0
2018-Feb-14 10:01N 38°43' W 009°07'0 0.0
2018-Feb-14 09:30N 38°43' W 009°07'0 0.0
2018-Feb-14 09:00N 38°43' W 009°07'4 6.8
2018-Feb-14 08:29N 38°41' W 009°10'1 2.6
2018-Feb-14 07:58N 38°41' W 009°12'0 0.0
2018-Feb-14 07:22N 38°41' W 009°12'0 0.0
2018-Feb-14 06:58N 38°41' W 009°12'0 0.0
2018-Feb-14 06:07N 38°41' W 009°12'0 0.0
2018-Feb-14 05:04N 38°41' W 009°12'0 0.0
2018-Feb-14 03:58N 38°41' W 009°12'0 0.0
2018-Feb-14 03:28N 38°41' W 009°12'0 0.0
2018-Feb-14 02:55N 38°41' W 009°12'0 0.0
2018-Feb-14 02:25N 38°41' W 009°12'0 0.0
2018-Feb-14 00:52N 38°41' W 009°12'0 0.0
2018-Feb-13 22:10N 38°41' W 009°12'0 0.0
2018-Feb-13 21:49N 38°41' W 009°12'0 0.0
2018-Feb-13 21:28N 38°41' W 009°12'0 0.0
2018-Feb-13 20:58N 38°41' W 009°12'0 0.0
2018-Feb-13 20:22N 38°41' W 009°12'0 0.0
2018-Feb-13 19:28N 38°41' W 009°12'0 0.0
2018-Feb-13 18:46N 38°41' W 009°12'0 0.0
2018-Feb-13 18:19N 38°41' W 009°12'0 0.0
2018-Feb-13 16:16N 38°41' W 009°12'0 0.0
2018-Feb-13 15:52N 38°41' W 009°12'0 0.0
2018-Feb-13 15:22N 38°41' W 009°12'0 0.0
2018-Feb-13 14:37N 38°41' W 009°12'0 0.0
2018-Feb-13 14:28N 38°41' W 009°12'0 0.0
2018-Feb-13 13:58N 38°41' W 009°12'0 0.0
2018-Feb-13 13:16N 38°41' W 009°12'0 0.0
2018-Feb-13 12:40N 38°41' W 009°12'0 0.0
2018-Feb-13 11:58N 38°41' W 009°12'0 0.0
2018-Feb-13 09:58N 38°41' W 009°12'0 0.0
2018-Feb-13 09:10N 38°41' W 009°12'0 0.0
2018-Feb-13 08:58N 38°41' W 009°12'0 0.0
2018-Feb-13 08:16N 38°41' W 009°12'0 0.0
2018-Feb-13 07:58N 38°41' W 009°12'0 0.0
2018-Feb-13 05:19N 38°41' W 009°12'0 0.0
2018-Feb-13 03:28N 38°41' W 009°12'0 0.0
2018-Feb-13 01:37N 38°41' W 009°12'0 0.0
2018-Feb-12 21:43N 38°41' W 009°12'0 0.0
2018-Feb-12 20:43N 38°41' W 009°12'0 0.0
2018-Feb-12 20:19N 38°41' W 009°12'1 0.2
2018-Feb-12 16:49N 38°41' W 009°11'0 0.1
2018-Feb-12 16:28N 38°41' W 009°11'1 0.6
2018-Feb-12 15:16N 38°41' W 009°12'2 4.6
2018-Feb-12 14:51N 38°42' W 009°10'0 0.0
2018-Feb-12 12:54N 38°42' W 009°10'0 0.0
2018-Feb-12 12:18N 38°42' W 009°10'0 0.0
2018-Feb-12 11:12N 38°42' W 009°10'0 0.0
2018-Feb-12 10:54N 38°42' W 009°10'1 2.6
2018-Feb-12 10:30N 38°42' W 009°09'2 0.9
2018-Feb-12 07:55N 38°43' W 009°06'4 8.3
2018-Feb-12 07:29N 38°41' W 009°10'2 3.5
2018-Feb-12 06:59N 38°41' W 009°12'0 0.0
2018-Feb-12 06:11N 38°41' W 009°12'0 0.0
2018-Feb-12 05:59N 38°41' W 009°12'0 0.0
2018-Feb-12 05:26N 38°41' W 009°12'0 0.0
2018-Feb-12 04:56N 38°41' W 009°12'0 0.0
2018-Feb-12 04:17N 38°41' W 009°12'0 0.0
2018-Feb-12 03:59N 38°41' W 009°12'0 0.0
2018-Feb-12 03:23N 38°41' W 009°12'0 0.0
2018-Feb-12 02:59N 38°41' W 009°12'0 0.0
2018-Feb-12 02:23N 38°41' W 009°12'0 0.0
2018-Feb-12 01:59N 38°41' W 009°12'0 0.0
2018-Feb-12 01:29N 38°41' W 009°12'0 0.0
2018-Feb-12 00:59N 38°41' W 009°12'0 0.0
2018-Feb-12 00:29N 38°41' W 009°12'0 0.0
2018-Feb-11 23:38N 38°41' W 009°12'0 0.0
2018-Feb-11 23:23N 38°41' W 009°12'0 0.0
2018-Feb-11 22:53N 38°41' W 009°12'0 0.0
2018-Feb-11 22:23N 38°41' W 009°12'0 0.0
2018-Feb-11 21:47N 38°41' W 009°12'0 0.0
2018-Feb-11 21:17N 38°41' W 009°12'0 0.0
2018-Feb-11 20:53N 38°41' W 009°12'0 0.0
2018-Feb-11 20:23N 38°41' W 009°12'0 0.0
2018-Feb-11 19:53N 38°41' W 009°12'0 0.0
2018-Feb-11 19:23N 38°41' W 009°12'0 0.0
2018-Feb-11 18:05N 38°41' W 009°12'0 0.0
2018-Feb-11 17:53N 38°41' W 009°12'0 0.0
2018-Feb-11 17:29N 38°41' W 009°12'0 0.0
2018-Feb-11 16:41N 38°41' W 009°12'0 0.0
2018-Feb-11 16:29N 38°41' W 009°12'0 0.0
2018-Feb-11 15:53N 38°41' W 009°12'0 0.0
2018-Feb-11 15:17N 38°41' W 009°12'0 0.0
2018-Feb-11 14:59N 38°41' W 009°12'0 0.0
2018-Feb-11 14:29N 38°41' W 009°12'0 0.0
2018-Feb-11 13:53N 38°41' W 009°12'0 0.0
2018-Feb-11 13:29N 38°41' W 009°12'0 0.0
2018-Feb-11 12:59N 38°41' W 009°12'0 0.0
2018-Feb-11 12:23N 38°41' W 009°12'0 0.0
2018-Feb-11 11:53N 38°41' W 009°12'0 0.0
2018-Feb-11 11:23N 38°41' W 009°12'0 0.0
2018-Feb-11 10:53N 38°41' W 009°12'0 0.0
2018-Feb-11 10:23N 38°41' W 009°12'0 0.0
2018-Feb-11 09:05N 38°41' W 009°12'0 0.0
2018-Feb-11 08:53N 38°41' W 009°12'0 0.0
2018-Feb-11 08:05N 38°41' W 009°12'0 0.0
2018-Feb-11 07:59N 38°41' W 009°12'0 0.0
2018-Feb-11 07:23N 38°41' W 009°12'0 0.0
2018-Feb-11 06:47N 38°41' W 009°12'0 0.0
2018-Feb-11 06:29N 38°41' W 009°12'0 0.0
2018-Feb-11 05:53N 38°41' W 009°12'0 0.0
2018-Feb-11 04:35N 38°41' W 009°12'0 0.0
2018-Feb-11 03:20N 38°41' W 009°12'0 0.0
2018-Feb-11 02:59N 38°41' W 009°12'0 0.0
2018-Feb-11 02:23N 38°41' W 009°12'0 0.0
2018-Feb-11 01:47N 38°41' W 009°12'0 0.0
2018-Feb-11 01:29N 38°41' W 009°12'0 0.0
2018-Feb-10 22:19N 38°41' W 009°12'0 0.1
2018-Feb-10 19:51N 38°41' W 009°13'0 0.0
2018-Feb-10 19:21N 38°41' W 009°13'0 0.0
2018-Feb-10 18:21N 38°41' W 009°13'0 0.0
2018-Feb-10 17:57N 38°41' W 009°13'0 0.0
2018-Feb-10 17:27N 38°41' W 009°13'2 4.6
2018-Feb-10 17:00N 38°41' W 009°10'3 5.9
2018-Feb-10 16:27N 38°43' W 009°07'0 0.0
2018-Feb-10 14:15N 38°43' W 009°07'  
Track history (hours):
 
Tides and Currents Weather Stations Pressure Air Temp Water Temp Dewpoint Dewpoint Depression Visibility Wind Speed Wind Dir Waves Ship Positions

Sacor II

Last reported at 2018-Feb-20 13:11 UTC. Time now 2018-Feb-20 14:05 UTC.
Position N 38°41' W 009°12'.

Length 75 m; draft 3.5 m.

Type: Tanker. MMSI: 263702340.

Date/timePositionNaut miles runAvg speedWind from/ knotsBaromVisibWave heightAir tempDewpointWater temp
2018-Feb-20 13:11N 38°41' W 009°12'0 0.0
2018-Feb-20 12:59N 38°41' W 009°12'0 0.0
2018-Feb-19 21:16N 38°41' W 009°12'0 0.0
2018-Feb-19 20:22N 38°41' W 009°12'0 0.0
2018-Feb-19 19:46N 38°41' W 009°12'0 0.0
2018-Feb-19 19:16N 38°41' W 009°12'0 0.0
2018-Feb-19 18:40N 38°41' W 009°12'0 0.0
2018-Feb-19 18:10N 38°41' W 009°12'0 0.0
2018-Feb-19 17:49N 38°41' W 009°12'0 0.0
2018-Feb-19 14:16N 38°41' W 009°12'0 0.0
2018-Feb-19 13:58N 38°41' W 009°12'0 0.0
2018-Feb-19 13:13N 38°41' W 009°12'0 0.0
2018-Feb-19 12:58N 38°41' W 009°12'0 0.0
2018-Feb-19 12:13N 38°41' W 009°12'0 0.0
2018-Feb-19 11:46N 38°41' W 009°12'0 0.0
2018-Feb-19 10:31N 38°41' W 009°12'0 0.0
2018-Feb-19 10:04N 38°41' W 009°12'0 0.0
2018-Feb-19 09:43N 38°41' W 009°12'0 0.0
2018-Feb-19 09:22N 38°41' W 009°12'0 0.0
2018-Feb-19 08:58N 38°41' W 009°12'1 0.9
2018-Feb-19 08:16N 38°41' W 009°12'0 0.1
2018-Feb-19 07:58N 38°41' W 009°12'0 0.1
2018-Feb-19 07:25N 38°41' W 009°11'0 0.0
2018-Feb-19 06:58N 38°41' W 009°11'0 0.0
2018-Feb-19 06:25N 38°41' W 009°11'0 0.1
2018-Feb-19 05:55N 38°41' W 009°11'1 0.5
2018-Feb-19 04:29N 38°41' W 009°12'0 0.0
2018-Feb-19 03:56N 38°41' W 009°12'0 0.0
2018-Feb-19 03:26N 38°41' W 009°12'0 0.0
2018-Feb-19 02:56N 38°41' W 009°12'0 0.0
2018-Feb-19 00:38N 38°41' W 009°12'0 0.0
2018-Feb-19 00:02N 38°41' W 009°12'0 0.0
2018-Feb-18 23:38N 38°41' W 009°12'0 0.0
2018-Feb-18 23:26N 38°41' W 009°12'0 0.0
2018-Feb-18 21:59N 38°41' W 009°12'0 0.0
2018-Feb-18 21:26N 38°41' W 009°12'0 0.0
2018-Feb-18 19:56N 38°41' W 009°12'0 0.0
2018-Feb-18 19:29N 38°41' W 009°12'0 0.0
2018-Feb-18 18:53N 38°41' W 009°12'0 0.0
2018-Feb-18 18:26N 38°41' W 009°12'0 0.0
2018-Feb-18 16:53N 38°41' W 009°12'0 0.0
2018-Feb-18 15:20N 38°41' W 009°12'0 0.0
2018-Feb-18 14:53N 38°41' W 009°12'0 1.1
2018-Feb-18 14:30N 38°41' W 009°12'4 7.1
2018-Feb-18 14:00N 38°42' W 009°08'1 1.6
2018-Feb-18 13:28N 38°43' W 009°07'0 0.0
2018-Feb-18 12:46N 38°43' W 009°07'0 0.0
2018-Feb-18 12:28N 38°43' W 009°07'0 0.0
2018-Feb-18 11:49N 38°43' W 009°07'0 0.0
2018-Feb-18 11:25N 38°43' W 009°07'0 0.0
2018-Feb-18 10:43N 38°43' W 009°07'0 0.0
2018-Feb-18 10:25N 38°43' W 009°07'0 0.0
2018-Feb-18 09:58N 38°43' W 009°07'0 0.0
2018-Feb-18 09:28N 38°43' W 009°07'0 0.0
2018-Feb-18 08:58N 38°43' W 009°07'3 6.0
2018-Feb-18 08:30N 38°41' W 009°10'2 4.2
2018-Feb-18 07:59N 38°41' W 009°12'0 0.0
2018-Feb-18 07:29N 38°41' W 009°12'0 0.0
2018-Feb-18 06:59N 38°41' W 009°12'0 0.0
2018-Feb-18 06:29N 38°41' W 009°12'0 0.0
2018-Feb-18 05:53N 38°41' W 009°12'0 0.0
2018-Feb-18 05:11N 38°41' W 009°12'0 0.0
2018-Feb-18 03:47N 38°41' W 009°12'0 0.0
2018-Feb-18 03:23N 38°41' W 009°12'0 0.0
2018-Feb-18 02:41N 38°41' W 009°12'0 0.0
2018-Feb-18 02:11N 38°41' W 009°12'0 0.0
2018-Feb-18 01:59N 38°41' W 009°12'0 0.0
2018-Feb-18 01:26N 38°41' W 009°12'0 0.0
2018-Feb-18 00:59N 38°41' W 009°12'0 0.0
2018-Feb-18 00:17N 38°41' W 009°12'0 0.0
2018-Feb-17 22:53N 38°41' W 009°12'0 0.0
2018-Feb-17 20:53N 38°41' W 009°12'0 0.0
2018-Feb-17 20:08N 38°41' W 009°12'0 0.0
2018-Feb-17 19:41N 38°41' W 009°12'0 0.0
2018-Feb-17 19:29N 38°41' W 009°12'0 0.0
2018-Feb-17 18:59N 38°41' W 009°12'0 0.0
2018-Feb-17 18:17N 38°41' W 009°12'0 0.0
2018-Feb-17 17:53N 38°41' W 009°12'0 0.0
2018-Feb-17 16:47N 38°41' W 009°12'0 0.0
2018-Feb-17 16:11N 38°41' W 009°12'0 0.0
2018-Feb-17 15:47N 38°41' W 009°12'0 0.0
2018-Feb-17 15:23N 38°41' W 009°12'0 0.0
2018-Feb-17 13:53N 38°41' W 009°12'0 0.0
2018-Feb-17 12:23N 38°41' W 009°12'0 0.0
2018-Feb-17 11:50N 38°41' W 009°12'0 0.0
2018-Feb-17 11:23N 38°41' W 009°12'0 0.0
2018-Feb-17 10:59N 38°41' W 009°12'0 0.0
2018-Feb-17 10:29N 38°41' W 009°12'0 0.0
2018-Feb-17 09:53N 38°41' W 009°12'0 0.0
2018-Feb-17 09:11N 38°41' W 009°12'0 0.0
2018-Feb-17 08:47N 38°41' W 009°12'0 0.0
2018-Feb-17 07:29N 38°41' W 009°12'0 0.0
2018-Feb-17 06:50N 38°41' W 009°12'0 0.0
2018-Feb-17 04:41N 38°41' W 009°12'0 0.0
2018-Feb-17 04:11N 38°41' W 009°12'0 0.0
2018-Feb-17 02:17N 38°41' W 009°12'0 0.0
2018-Feb-17 01:41N 38°41' W 009°12'0 0.0
2018-Feb-17 01:17N 38°41' W 009°12'0 0.0
2018-Feb-17 00:59N 38°41' W 009°12'0 0.0
2018-Feb-17 00:23N 38°41' W 009°12'0 0.5
2018-Feb-17 00:00N 38°41' W 009°12'1 1.1
2018-Feb-16 23:19N 38°41' W 009°11'0 0.1
2018-Feb-16 21:51N 38°41' W 009°11'3 8.9
2018-Feb-16 21:30N 38°42' W 009°07'0 0.2
2018-Feb-16 20:58N 38°42' W 009°07'0 0.0
2018-Feb-16 20:28N 38°42' W 009°07'0 0.0
2018-Feb-16 19:58N 38°42' W 009°07'0 0.0
2018-Feb-16 19:31N 38°42' W 009°07'0 0.0
2018-Feb-16 19:00N 38°42' W 009°07'0 0.0
2018-Feb-16 18:29N 38°42' W 009°07'0 0.1
2018-Feb-16 18:01N 38°42' W 009°07'0 0.1
2018-Feb-16 17:30N 38°42' W 009°07'0 0.5
2018-Feb-16 16:59N 38°42' W 009°07'3 4.5
2018-Feb-16 16:25N 38°44' W 009°06'0 0.0
2018-Feb-16 16:00N 38°44' W 009°06'0 0.0
2018-Feb-16 15:27N 38°44' W 009°06'0 0.0
2018-Feb-16 15:01N 38°44' W 009°06'0 0.0
2018-Feb-16 13:50N 38°44' W 009°06'0 0.7
2018-Feb-16 13:30N 38°44' W 009°06'3 6.8
2018-Feb-16 13:01N 38°42' W 009°08'4 3.2
2018-Feb-16 11:53N 38°41' W 009°13'0 0.0
2018-Feb-16 09:53N 38°41' W 009°13'0 0.0
2018-Feb-16 08:50N 38°41' W 009°13'0 0.2
2018-Feb-16 08:24N 38°41' W 009°13'0 1.1
2018-Feb-16 08:00N 38°41' W 009°12'0 0.0
2018-Feb-16 07:27N 38°41' W 009°12'0 0.0
2018-Feb-16 07:00N 38°41' W 009°12'0 0.0
2018-Feb-16 06:09N 38°41' W 009°12'0 0.0
2018-Feb-16 05:42N 38°41' W 009°12'0 0.0
2018-Feb-16 04:51N 38°41' W 009°12'0 0.0
2018-Feb-16 04:30N 38°41' W 009°12'0 0.0
2018-Feb-16 02:36N 38°41' W 009°12'0 0.0
2018-Feb-16 02:24N 38°41' W 009°12'0 0.0
2018-Feb-16 01:42N 38°41' W 009°12'0 0.0
2018-Feb-16 01:24N 38°41' W 009°12'0 0.0
2018-Feb-16 00:48N 38°41' W 009°12'0 0.0
2018-Feb-15 23:12N 38°41' W 009°12'0 0.0
2018-Feb-15 22:42N 38°41' W 009°12'0 0.0
2018-Feb-15 22:21N 38°41' W 009°12'0 0.2
2018-Feb-15 21:57N 38°41' W 009°12'4 7.6
2018-Feb-15 21:29N 38°42' W 009°08'0 0.1
2018-Feb-15 20:59N 38°42' W 009°08'0 0.1
2018-Feb-15 20:29N 38°42' W 009°08'0 0.0
2018-Feb-15 19:56N 38°42' W 009°08'0 0.0
2018-Feb-15 19:29N 38°42' W 009°08'0 0.0
2018-Feb-15 18:59N 38°42' W 009°08'0 0.3
2018-Feb-15 18:30N 38°42' W 009°08'4 6.9
2018-Feb-15 17:59N 38°41' W 009°13'0 0.1
2018-Feb-15 16:27N 38°41' W 009°13'1 0.5
2018-Feb-15 15:26N 38°41' W 009°12'4 8.9
2018-Feb-15 15:00N 38°42' W 009°08'2 1.0
2018-Feb-15 13:29N 38°44' W 009°06'0 0.0
2018-Feb-15 12:56N 38°44' W 009°06'0 0.0
2018-Feb-15 09:11N 38°43' W 009°06'0 0.4
2018-Feb-15 08:58N 38°43' W 009°06'4 7.8
2018-Feb-15 08:30N 38°41' W 009°10'2 2.5
2018-Feb-15 07:48N 38°41' W 009°12'0 0.0
2018-Feb-15 07:24N 38°41' W 009°12'0 0.0
2018-Feb-15 06:21N 38°41' W 009°12'0 0.0
2018-Feb-15 05:42N 38°41' W 009°12'0 0.0
2018-Feb-15 05:30N 38°41' W 009°12'0 0.0
2018-Feb-15 04:00N 38°41' W 009°12'0 0.0
2018-Feb-15 02:33N 38°41' W 009°12'0 0.0
2018-Feb-15 01:06N 38°41' W 009°12'0 0.0
2018-Feb-15 00:54N 38°41' W 009°12'0 0.0
2018-Feb-15 00:21N 38°41' W 009°12'0 0.0
2018-Feb-15 00:00N 38°41' W 009°12'0 0.0
2018-Feb-14 23:18N 38°41' W 009°12'0 0.0
2018-Feb-14 23:00N 38°41' W 009°12'0 0.0
2018-Feb-14 22:12N 38°41' W 009°12'0 0.0
2018-Feb-14 20:48N 38°41' W 009°12'0 0.0
2018-Feb-14 20:06N 38°41' W 009°12'0 0.0
2018-Feb-14 20:00N 38°41' W 009°12'0 0.0
2018-Feb-14 18:33N 38°41' W 009°12'0 0.2
2018-Feb-14 18:15N 38°41' W 009°12'0 0.7
2018-Feb-14 17:43N 38°41' W 009°13'0 0.0
2018-Feb-14 17:25N 38°41' W 009°13'0 0.0
2018-Feb-14 16:49N 38°41' W 009°13'0 0.0
2018-Feb-14 16:28N 38°41' W 009°13'0 0.0
2018-Feb-14 15:58N 38°41' W 009°13'0 0.0
2018-Feb-14 15:22N 38°41' W 009°13'0 0.0
2018-Feb-14 14:55N 38°41' W 009°13'0 0.0
2018-Feb-14 14:27N 38°41' W 009°13'0 0.0
2018-Feb-14 14:00N 38°41' W 009°13'2 4.3
2018-Feb-14 13:30N 38°41' W 009°10'3 6.3
2018-Feb-14 12:59N 38°43' W 009°07'0 0.0
2018-Feb-14 12:29N 38°43' W 009°07'0 0.0
2018-Feb-14 11:57N 38°43' W 009°07'0 0.0
2018-Feb-14 11:30N 38°43' W 009°07'0 0.0
2018-Feb-14 11:00N 38°43' W 009°07'0 0.3
2018-Feb-14 10:30N 38°43' W 009°07'0 0.0
2018-Feb-14 10:01N 38°43' W 009°07'0 0.0
2018-Feb-14 09:30N 38°43' W 009°07'0 0.0
2018-Feb-14 09:00N 38°43' W 009°07'4 6.8
2018-Feb-14 08:29N 38°41' W 009°10'1 2.6
2018-Feb-14 07:58N 38°41' W 009°12'0 0.0
2018-Feb-14 07:22N 38°41' W 009°12'0 0.0
2018-Feb-14 06:58N 38°41' W 009°12'0 0.0
2018-Feb-14 06:07N 38°41' W 009°12'0 0.0
2018-Feb-14 05:04N 38°41' W 009°12'0 0.0
2018-Feb-14 03:58N 38°41' W 009°12'0 0.0
2018-Feb-14 03:28N 38°41' W 009°12'0 0.0
2018-Feb-14 02:55N 38°41' W 009°12'0 0.0
2018-Feb-14 02:25N 38°41' W 009°12'0 0.0
2018-Feb-14 00:52N 38°41' W 009°12'0 0.0
2018-Feb-13 22:10N 38°41' W 009°12'0 0.0
2018-Feb-13 21:49N 38°41' W 009°12'0 0.0
2018-Feb-13 21:28N 38°41' W 009°12'0 0.0
2018-Feb-13 20:58N 38°41' W 009°12'0 0.0
2018-Feb-13 20:22N 38°41' W 009°12'0 0.0
2018-Feb-13 19:28N 38°41' W 009°12'0 0.0
2018-Feb-13 18:46N 38°41' W 009°12'0 0.0
2018-Feb-13 18:19N 38°41' W 009°12'0 0.0
2018-Feb-13 16:16N 38°41' W 009°12'0 0.0
2018-Feb-13 15:52N 38°41' W 009°12'0 0.0
2018-Feb-13 15:22N 38°41' W 009°12'0 0.0
2018-Feb-13 14:37N 38°41' W 009°12'0 0.0
2018-Feb-13 14:28N 38°41' W 009°12'0 0.0
2018-Feb-13 13:58N 38°41' W 009°12'0 0.0
2018-Feb-13 13:16N 38°41' W 009°12'0 0.0
2018-Feb-13 12:40N 38°41' W 009°12'0 0.0
2018-Feb-13 11:58N 38°41' W 009°12'0 0.0
2018-Feb-13 09:58N 38°41' W 009°12'0 0.0
2018-Feb-13 09:10N 38°41' W 009°12'0 0.0
2018-Feb-13 08:58N 38°41' W 009°12'0 0.0
2018-Feb-13 08:16N 38°41' W 009°12'0 0.0
2018-Feb-13 07:58N 38°41' W 009°12'0 0.0
2018-Feb-13 05:19N 38°41' W 009°12'0 0.0
2018-Feb-13 03:28N 38°41' W 009°12'0 0.0
2018-Feb-13 01:37N 38°41' W 009°12'0 0.0
2018-Feb-12 21:43N 38°41' W 009°12'0 0.0
2018-Feb-12 20:43N 38°41' W 009°12'0 0.0
2018-Feb-12 20:19N 38°41' W 009°12'1 0.2
2018-Feb-12 16:49N 38°41' W 009°11'0 0.1
2018-Feb-12 16:28N 38°41' W 009°11'1 0.6
2018-Feb-12 15:16N 38°41' W 009°12'2 4.6
2018-Feb-12 14:51N 38°42' W 009°10'0 0.0
2018-Feb-12 12:54N 38°42' W 009°10'0 0.0
2018-Feb-12 12:18N 38°42' W 009°10'0 0.0
2018-Feb-12 11:12N 38°42' W 009°10'0 0.0
2018-Feb-12 10:54N 38°42' W 009°10'1 2.6
2018-Feb-12 10:30N 38°42' W 009°09'2 0.9
2018-Feb-12 07:55N 38°43' W 009°06'4 8.3
2018-Feb-12 07:29N 38°41' W 009°10'2 3.5
2018-Feb-12 06:59N 38°41' W 009°12'0 0.0
2018-Feb-12 06:11N 38°41' W 009°12'0 0.0
2018-Feb-12 05:59N 38°41' W 009°12'0 0.0
2018-Feb-12 05:26N 38°41' W 009°12'0 0.0
2018-Feb-12 04:56N 38°41' W 009°12'0 0.0
2018-Feb-12 04:17N 38°41' W 009°12'0 0.0
2018-Feb-12 03:59N 38°41' W 009°12'0 0.0
2018-Feb-12 03:23N 38°41' W 009°12'0 0.0
2018-Feb-12 02:59N 38°41' W 009°12'0 0.0
2018-Feb-12 02:23N 38°41' W 009°12'0 0.0
2018-Feb-12 01:59N 38°41' W 009°12'0 0.0
2018-Feb-12 01:29N 38°41' W 009°12'0 0.0
2018-Feb-12 00:59N 38°41' W 009°12'0 0.0
2018-Feb-12 00:29N 38°41' W 009°12'0 0.0
2018-Feb-11 23:38N 38°41' W 009°12'0 0.0
2018-Feb-11 23:23N 38°41' W 009°12'0 0.0
2018-Feb-11 22:53N 38°41' W 009°12'0 0.0
2018-Feb-11 22:23N 38°41' W 009°12'0 0.0
2018-Feb-11 21:47N 38°41' W 009°12'0 0.0
2018-Feb-11 21:17N 38°41' W 009°12'0 0.0
2018-Feb-11 20:53N 38°41' W 009°12'0 0.0
2018-Feb-11 20:23N 38°41' W 009°12'0 0.0
2018-Feb-11 19:53N 38°41' W 009°12'0 0.0
2018-Feb-11 19:23N 38°41' W 009°12'0 0.0
2018-Feb-11 18:05N 38°41' W 009°12'0 0.0
2018-Feb-11 17:53N 38°41' W 009°12'0 0.0
2018-Feb-11 17:29N 38°41' W 009°12'0 0.0
2018-Feb-11 16:41N 38°41' W 009°12'0 0.0
2018-Feb-11 16:29N 38°41' W 009°12'0 0.0
2018-Feb-11 15:53N 38°41' W 009°12'0 0.0
2018-Feb-11 15:17N 38°41' W 009°12'0 0.0
2018-Feb-11 14:59N 38°41' W 009°12'0 0.0
2018-Feb-11 14:29N 38°41' W 009°12'0 0.0
2018-Feb-11 13:53N 38°41' W 009°12'0 0.0
2018-Feb-11 13:29N 38°41' W 009°12'0 0.0
2018-Feb-11 12:59N 38°41' W 009°12'0 0.0
2018-Feb-11 12:23N 38°41' W 009°12'0 0.0
2018-Feb-11 11:53N 38°41' W 009°12'0 0.0
2018-Feb-11 11:23N 38°41' W 009°12'0 0.0
2018-Feb-11 10:53N 38°41' W 009°12'0 0.0
2018-Feb-11 10:23N 38°41' W 009°12'0 0.0
2018-Feb-11 09:05N 38°41' W 009°12'0 0.0
2018-Feb-11 08:53N 38°41' W 009°12'0 0.0
2018-Feb-11 08:05N 38°41' W 009°12'0 0.0
2018-Feb-11 07:59N 38°41' W 009°12'0 0.0
2018-Feb-11 07:23N 38°41' W 009°12'0 0.0
2018-Feb-11 06:47N 38°41' W 009°12'0 0.0
2018-Feb-11 06:29N 38°41' W 009°12'0 0.0
2018-Feb-11 05:53N 38°41' W 009°12'0 0.0
2018-Feb-11 04:35N 38°41' W 009°12'0 0.0
2018-Feb-11 03:20N 38°41' W 009°12'0 0.0
2018-Feb-11 02:59N 38°41' W 009°12'0 0.0
2018-Feb-11 02:23N 38°41' W 009°12'0 0.0
2018-Feb-11 01:47N 38°41' W 009°12'0 0.0
2018-Feb-11 01:29N 38°41' W 009°12'0 0.0
2018-Feb-10 22:19N 38°41' W 009°12'0 0.1
2018-Feb-10 19:51N 38°41' W 009°13'0 0.0
2018-Feb-10 19:21N 38°41' W 009°13'0 0.0
2018-Feb-10 18:21N 38°41' W 009°13'0 0.0
2018-Feb-10 17:57N 38°41' W 009°13'0 0.0
2018-Feb-10 17:27N 38°41' W 009°13'2 4.6
2018-Feb-10 17:00N 38°41' W 009°10'3 5.9
2018-Feb-10 16:27N 38°43' W 009°07'0 0.0
2018-Feb-10 14:15N 38°43' W 009°07'  

Dump ship's entire track history